Time;durP1;ratioP1;P1;durP2;ratioP2;P2;SDS_P1;SDS_P2;PMS_P1;PMS_P2;Temp;Humidity;BMP_temperature;BMP_pressure;BME280_temperature;BME280_humidity;BME280_pressure;Samples;Min_cycle;Max_cycle;Signal;HPM_P1;HPM_P2
2022/06/30 00:00:38;;;;;;;11.18;5.13;;;;;;;22.20;66.35;96408.19;6154106;23;20470;-76
2022/06/30 00:03:06;;;;;;;8.88;4.80;;;;;;;22.20;66.87;96402.88;6154585;23;20433;-76
2022/06/30 00:05:33;;;;;;;6.80;4.68;;;;;;;22.22;66.77;96400.00;6154577;23;20047;-75
2022/06/30 00:08:01;;;;;;;7.63;4.45;;;;;;;22.24;66.34;96413.81;6155501;23;20076;-76
2022/06/30 00:10:29;;;;;;;5.57;4.30;;;;;;;22.24;66.75;96407.69;6156225;23;20049;-76
2022/06/30 00:12:57;;;;;;;8.75;4.85;;;;;;;22.23;66.59;96411.41;6156503;23;20362;-76
2022/06/30 00:15:26;;;;;;;6.72;4.43;;;;;;;22.19;66.90;96411.91;6157301;23;20413;-76
2022/06/30 00:17:53;;;;;;;9.68;4.40;;;;;;;22.16;67.01;96407.13;6173524;23;20030;-76
2022/06/30 00:20:21;;;;;;;6.68;4.68;;;;;;;22.12;67.27;96413.22;6173464;23;20025;-76
2022/06/30 00:22:48;;;;;;;5.95;4.63;;;;;;;22.08;67.08;96410.25;6161531;23;20025;-76
2022/06/30 00:25:17;;;;;;;8.65;4.60;;;;;;;22.03;67.10;96407.59;6158351;23;20059;-76
2022/06/30 00:27:45;;;;;;;10.60;4.93;;;;;;;22.01;67.69;96407.06;6157748;23;20405;-76
2022/06/30 00:30:13;;;;;;;5.65;5.03;;;;;;;21.99;67.65;96407.31;6157290;23;20026;-76
2022/06/30 00:32:42;;;;;;;8.35;5.15;;;;;;;21.97;67.58;96406.78;6156870;23;20100;-76
2022/06/30 00:35:09;;;;;;;8.90;4.85;;;;;;;21.94;67.58;96404.63;6156586;23;20104;-76
2022/06/30 00:37:37;;;;;;;5.55;4.60;;;;;;;21.94;67.60;96401.19;6156059;23;20026;-75
2022/06/30 00:40:06;;;;;;;7.47;4.53;;;;;;;21.93;67.87;96392.44;6155818;23;20059;-77
2022/06/30 00:42:33;;;;;;;4.93;4.38;;;;;;;21.92;67.59;96390.03;6156636;23;20048;-76
2022/06/30 00:45:01;;;;;;;6.43;4.47;;;;;;;21.92;67.51;96390.03;6156045;23;20052;-76
2022/06/30 00:47:29;;;;;;;6.53;4.72;;;;;;;21.91;67.70;96393.72;6156296;23;20025;-76
2022/06/30 00:49:58;;;;;;;5.18;4.40;;;;;;;21.88;67.66;96389.72;6155912;23;20027;-77
2022/06/30 00:52:29;;;;;;;6.82;4.65;;;;;;;21.85;68.06;96384.94;6155809;23;20500;-76
2022/06/30 00:54:58;;;;;;;5.25;4.15;;;;;;;21.80;68.08;96383.06;6155917;23;20060;-76
2022/06/30 00:57:26;;;;;;;5.13;4.63;;;;;;;21.76;68.04;96381.19;6156172;23;20096;-76
2022/06/30 00:59:57;;;;;;;6.20;4.43;;;;;;;21.71;67.82;96378.50;6155441;23;20109;-76
2022/06/30 01:02:26;;;;;;;6.57;4.60;;;;;;;21.68;68.29;96373.72;6155883;23;20084;-76
2022/06/30 01:04:54;;;;;;;8.15;4.65;;;;;;;21.64;68.64;96375.28;6155523;23;20025;-76
2022/06/30 01:07:25;;;;;;;6.47;4.38;;;;;;;21.59;68.72;96368.88;6156122;23;20089;-76
2022/06/30 01:12:43;;;;;;;6.47;3.78;;;;;;;21.53;68.75;96358.50;6155594;23;20052;-76
2022/06/30 01:15:13;;;;;;;6.45;4.38;;;;;;;21.52;68.70;96362.22;6155509;23;20413;-76
2022/06/30 01:17:41;;;;;;;6.72;4.38;;;;;;;21.49;69.01;96368.03;6155794;23;20354;-76
2022/06/30 01:20:10;;;;;;;8.27;4.43;;;;;;;21.48;69.08;96367.25;6154837;23;20101;-76
2022/06/30 01:22:40;;;;;;;4.72;4.10;;;;;;;21.47;69.09;96368.31;6155578;23;20339;-76
2022/06/30 01:25:09;;;;;;;5.65;4.10;;;;;;;21.49;68.68;96362.72;6154977;23;20648;-76
2022/06/30 01:27:37;;;;;;;6.20;4.53;;;;;;;21.51;69.04;96355.31;6155571;23;20104;-76
2022/06/30 01:30:06;;;;;;;8.05;4.70;;;;;;;21.50;68.70;96359.81;6155279;23;20056;-76
2022/06/30 01:32:33;;;;;;;6.93;4.53;;;;;;;21.49;68.42;96358.22;6155447;23;20331;-76
2022/06/30 01:35:01;;;;;;;5.05;3.60;;;;;;;21.50;68.44;96361.69;6155017;23;20073;-76
2022/06/30 01:37:46;;;;;;;8.55;4.22;;;;;;;21.51;68.90;96352.66;6155090;23;20053;-76
2022/06/30 01:40:13;;;;;;;7.18;4.07;;;;;;;21.51;68.01;96345.47;6155180;23;20051;-77
2022/06/30 01:42:41;;;;;;;6.50;4.35;;;;;;;21.48;68.50;96340.69;6155451;23;20044;-76
2022/06/30 01:45:09;;;;;;;4.78;4.38;;;;;;;21.44;68.28;96341.47;6155264;23;20041;-76
2022/06/30 01:47:38;;;;;;;6.97;4.80;;;;;;;21.42;68.64;96343.59;6155300;23;20025;-76
2022/06/30 01:50:08;;;;;;;5.95;4.47;;;;;;;21.37;68.60;96341.69;6155026;23;20022;-76
2022/06/30 01:52:35;;;;;;;5.13;4.45;;;;;;;21.30;68.60;96341.91;6155416;23;20068;-76
2022/06/30 01:55:06;;;;;;;6.45;4.13;;;;;;;21.24;68.90;96342.91;6155226;23;20018;-76
2022/06/30 01:57:34;;;;;;;7.72;4.40;;;;;;;21.17;68.92;96348.44;6155479;23;20025;-76
2022/06/30 02:00:02;;;;;;;5.22;4.55;;;;;;;21.12;69.24;96340.47;6154531;23;20028;-76
2022/06/30 02:02:30;;;;;;;8.75;5.13;;;;;;;21.08;69.53;96350.00;6155150;23;20391;-76
2022/06/30 02:04:57;;;;;;;5.38;4.47;;;;;;;21.03;69.50;96346.50;6154854;23;20028;-76
2022/06/30 02:07:25;;;;;;;5.45;4.82;;;;;;;20.97;69.89;96343.00;6154672;23;20021;-76
2022/06/30 02:09:52;;;;;;;6.80;4.75;;;;;;;20.92;69.86;96351.72;6155212;23;20053;-76
2022/06/30 02:15:10;;;;;;;7.85;5.00;;;;;;;20.85;70.11;96342.38;6154521;23;20492;-76
2022/06/30 02:17:38;;;;;;;6.28;5.05;;;;;;;20.80;70.26;96340.50;6155126;23;20068;-75
2022/06/30 02:20:08;;;;;;;5.72;4.93;;;;;;;20.76;70.65;96340.19;6154700;23;20327;-76
2022/06/30 02:22:36;;;;;;;6.25;4.97;;;;;;;20.71;70.26;96342.81;6155043;23;20390;-76
2022/06/30 02:25:06;;;;;;;5.63;4.65;;;;;;;20.66;70.60;96328.69;6154546;23;20022;-76
2022/06/30 02:27:35;;;;;;;6.57;5.07;;;;;;;20.60;70.67;96329.69;6154959;23;20021;-75
2022/06/30 02:30:04;;;;;;;6.88;5.35;;;;;;;20.54;70.49;96329.63;6154214;23;20025;-76
2022/06/30 02:32:31;;;;;;;6.50;4.88;;;;;;;20.48;70.42;96330.63;6155262;23;20021;-76
2022/06/30 02:34:59;;;;;;;6.95;5.38;;;;;;;20.43;70.49;96325.31;6156422;23;20104;-76
2022/06/30 02:37:26;;;;;;;6.32;4.85;;;;;;;20.38;70.70;96325.25;6156629;23;20508;-76
2022/06/30 02:39:54;;;;;;;5.00;4.60;;;;;;;20.35;70.90;96318.59;6154264;23;20365;-76
2022/06/30 02:42:22;;;;;;;6.63;5.10;;;;;;;20.33;70.98;96325.19;6154713;23;20022;-77
2022/06/30 02:44:51;;;;;;;8.52;4.90;;;;;;;20.33;70.94;96335.78;6154763;23;20025;-76
2022/06/30 02:47:18;;;;;;;5.38;4.88;;;;;;;20.32;70.76;96332.34;6154349;23;20105;-76
2022/06/30 02:49:46;;;;;;;7.30;6.07;;;;;;;20.30;70.62;96331.81;6154681;23;20057;-76
2022/06/30 02:52:13;;;;;;;5.55;5.05;;;;;;;20.27;70.70;96326.19;6154161;23;20022;-76
2022/06/30 02:54:41;;;;;;;9.35;5.10;;;;;;;20.24;71.04;96338.09;6154913;23;20026;-76
2022/06/30 02:57:08;;;;;;;9.63;5.85;;;;;;;20.21;71.02;96346.53;6154677;23;20096;-76
2022/06/30 02:59:36;;;;;;;6.95;5.50;;;;;;;20.19;70.90;96339.91;6154803;23;20108;-76
2022/06/30 03:02:05;;;;;;;5.97;4.60;;;;;;;20.19;71.08;96353.16;6154511;23;20067;-76
2022/06/30 03:04:33;;;;;;;6.40;4.88;;;;;;;20.17;71.23;96345.44;6154718;23;20059;-76
2022/06/30 03:07:00;;;;;;;7.15;5.22;;;;;;;20.17;71.22;96351.53;6154482;23;20018;-76
2022/06/30 03:09:28;;;;;;;7.25;5.40;;;;;;;20.20;70.88;96360.03;6154182;23;20022;-76
2022/06/30 03:11:55;;;;;;;6.22;4.88;;;;;;;20.19;71.01;96359.25;6154331;23;20153;-77
2022/06/30 03:14:23;;;;;;;5.97;5.38;;;;;;;20.16;70.91;96357.88;6160407;23;20026;-76
2022/06/30 03:16:51;;;;;;;6.60;4.78;;;;;;;20.15;71.17;96358.91;6162388;23;20529;-76
2022/06/30 03:19:20;;;;;;;5.20;4.70;;;;;;;20.16;71.13;96357.88;6159260;23;20025;-77
2022/06/30 03:21:48;;;;;;;5.68;5.00;;;;;;;20.16;71.01;96362.41;6154811;23;20022;-76
2022/06/30 03:24:15;;;;;;;8.00;4.60;;;;;;;20.17;71.24;96364.78;6154468;23;20470;-76
2022/06/30 03:26:43;;;;;;;6.75;5.45;;;;;;;20.19;70.97;96363.75;6154626;23;20096;-76
2022/06/30 03:29:11;;;;;;;6.18;5.05;;;;;;;20.19;70.78;96363.75;6154341;23;20104;-76
2022/06/30 03:31:38;;;;;;;6.30;4.75;;;;;;;20.20;70.67;96365.31;6161150;23;20081;-76
2022/06/30 03:34:06;;;;;;;8.27;5.55;;;;;;;20.17;70.45;96362.13;6169159;23;20077;-76
2022/06/30 03:36:34;;;;;;;7.30;5.65;;;;;;;20.15;70.82;96369.50;6167243;23;20346;-76
2022/06/30 03:39:02;;;;;;;7.05;5.93;;;;;;;20.11;70.74;96368.41;6157138;23;20056;-76
2022/06/30 03:41:30;;;;;;;6.82;5.47;;;;;;;20.06;70.91;96376.31;6156519;23;20027;-76
2022/06/30 03:43:57;;;;;;;6.90;5.30;;;;;;;20.02;71.00;96367.25;6157140;23;20045;-76
2022/06/30 03:46:25;;;;;;;5.90;5.30;;;;;;;20.01;71.12;96370.97;6156488;23;20105;-76
2022/06/30 03:48:52;;;;;;;6.20;5.00;;;;;;;20.03;71.18;96375.97;6156629;23;20025;-76
2022/06/30 03:51:20;;;;;;;6.50;5.90;;;;;;;20.05;71.08;96374.72;6155863;23;20525;-76
2022/06/30 03:53:49;;;;;;;7.93;4.70;;;;;;;20.09;70.98;96375.00;6156508;23;20122;-76
2022/06/30 03:56:17;;;;;;;6.00;5.32;;;;;;;20.12;71.04;96375.31;6155792;23;20404;-76
2022/06/30 03:58:44;;;;;;;7.53;5.55;;;;;;;20.15;70.81;96379.31;6156105;23;20101;-76
2022/06/30 04:01:12;;;;;;;9.57;5.88;;;;;;;20.13;70.52;96379.56;6155657;23;20026;-76
2022/06/30 04:03:39;;;;;;;9.20;5.35;;;;;;;20.10;70.49;96374.75;6156375;23;20025;-76
2022/06/30 04:06:07;;;;;;;6.65;5.90;;;;;;;20.08;70.69;96363.63;6156184;23;20052;-76
2022/06/30 04:08:34;;;;;;;8.98;5.97;;;;;;;20.08;70.69;96362.81;6156385;23;20030;-76
2022/06/30 04:11:03;;;;;;;5.97;5.38;;;;;;;20.08;70.77;96368.13;6155933;23;20025;-77
2022/06/30 04:13:31;;;;;;;6.60;5.90;;;;;;;20.08;70.58;96366.25;6156076;23;20097;-77
2022/06/30 04:15:58;;;;;;;7.95;5.82;;;;;;;20.07;70.86;96361.22;6154952;23;20112;-78
2022/06/30 04:18:26;;;;;;;8.27;5.78;;;;;;;20.04;70.87;96362.50;6157088;23;20049;-78
2022/06/30 04:20:53;;;;;;;9.35;6.03;;;;;;;20.03;70.90;96360.09;6156892;23;20096;-78
2022/06/30 04:23:21;;;;;;;6.82;5.75;;;;;;;20.00;71.13;96361.41;6158955;23;20021;-78
2022/06/30 04:25:49;;;;;;;7.88;5.97;;;;;;;19.99;70.96;96359.81;6172120;23;20025;-77
2022/06/30 04:28:18;;;;;;;6.05;5.45;;;;;;;19.98;71.26;96363.50;6163016;23;20105;-78
2022/06/30 04:33:31;;;;;;;8.82;5.50;;;;;;;19.95;71.39;96358.69;6157269;23;20089;-78
2022/06/30 04:35:58;;;;;;;7.22;5.97;;;;;;;19.96;71.51;96360.28;6157137;23;20021;-78
2022/06/30 04:38:26;;;;;;;8.32;5.68;;;;;;;19.95;71.45;96358.69;6157643;23;20052;-78
2022/06/30 04:43:40;;;;;;;8.30;5.97;;;;;;;19.93;71.70;96356.28;6157526;23;20100;-78
2022/06/30 04:46:08;;;;;;;8.18;6.05;;;;;;;19.96;71.41;96360.28;6157091;23;20018;-78
2022/06/30 04:48:35;;;;;;;8.00;6.45;;;;;;;19.96;71.50;96363.75;6156676;23;20493;-77
2022/06/30 04:51:03;;;;;;;8.02;5.57;;;;;;;19.98;71.66;96368.78;6157198;23;20101;-78
2022/06/30 04:53:31;;;;;;;6.70;6.10;;;;;;;20.01;71.63;96373.59;6156399;23;20076;-77
2022/06/30 04:55:58;;;;;;;7.95;6.43;;;;;;;20.02;71.53;96375.19;6157406;23;20105;-79
2022/06/30 04:58:26;;;;;;;10.10;6.45;;;;;;;20.04;71.40;96369.66;6157744;23;20026;-79
2022/06/30 05:00:55;;;;;;;8.23;6.25;;;;;;;20.06;71.30;96376.31;6156713;23;20021;-79
2022/06/30 05:03:23;;;;;;;8.15;5.97;;;;;;;20.08;71.38;96363.63;6158074;23;20488;-78
2022/06/30 05:05:50;;;;;;;6.57;5.38;;;;;;;20.13;71.46;96371.59;6157122;23;20058;-80
2022/06/30 05:08:18;;;;;;;7.72;6.93;;;;;;;20.17;71.28;96366.63;6157727;23;20488;-78
2022/06/30 05:10:45;;;;;;;9.38;7.85;;;;;;;20.16;71.24;96371.13;6158177;23;20022;-78
2022/06/30 05:13:13;;;;;;;9.05;7.15;;;;;;;20.19;71.24;96364.53;6159278;23;20024;-79
2022/06/30 05:15:41;;;;;;;11.52;8.90;;;;;;;20.20;71.31;96365.31;6157340;23;20065;-78
2022/06/30 05:18:10;;;;;;;14.57;8.85;;;;;;;20.19;71.31;96364.53;6169651;23;20466;-79
2022/06/30 05:20:38;;;;;;;12.40;8.65;;;;;;;20.19;71.36;96359.25;6158946;23;20033;-78
2022/06/30 05:23:09;;;;;;;11.65;8.02;;;;;;;20.21;71.54;96357.13;6163028;23;20466;-78
2022/06/30 05:28:24;;;;;;;14.93;7.13;;;;;;;20.25;71.65;96345.00;6166625;23;20024;-80
2022/06/30 05:30:52;;;;;;;9.75;6.75;;;;;;;20.28;71.60;96341.06;6163543;23;20029;-78
2022/06/30 05:33:21;;;;;;;8.18;6.45;;;;;;;20.33;71.63;96336.63;6156063;23;20021;-82
2022/06/30 05:35:50;;;;;;;8.25;5.78;;;;;;;20.37;71.38;96342.19;6163031;23;20009;-82
2022/06/30 05:38:19;;;;;;;6.68;4.95;;;;;;;20.44;71.35;96342.00;6160375;23;20425;-82
2022/06/30 05:40:50;;;;;;;8.88;4.95;;;;;;;20.49;71.34;96348.16;6164650;23;20025;-82
2022/06/30 05:43:18;;;;;;;5.50;4.65;;;;;;;20.55;71.64;96341.84;6161437;23;20036;-82
2022/06/30 05:45:46;;;;;;;5.93;4.40;;;;;;;20.61;71.19;96339.28;6161926;23;20025;-82
2022/06/30 05:48:14;;;;;;;7.35;4.30;;;;;;;20.66;71.10;96344.59;6159616;23;20022;-82
2022/06/30 05:50:43;;;;;;;15.45;5.47;;;;;;;20.70;71.06;96345.69;6158951;23;20088;-82
2022/06/30 05:53:11;;;;;;;10.35;6.28;;;;;;;20.74;71.32;96341.50;6159934;23;20028;-82
2022/06/30 05:55:38;;;;;;;8.73;5.75;;;;;;;20.80;71.36;96343.16;6160054;23;20095;-82
2022/06/30 05:58:07;;;;;;;6.90;6.07;;;;;;;20.83;70.98;96337.31;6159347;23;20024;-82
2022/06/30 06:00:35;;;;;;;7.82;5.68;;;;;;;20.88;70.96;96340.03;6159996;23;20109;-81
2022/06/30 06:03:02;;;;;;;15.30;7.47;;;;;;;20.92;70.98;96340.31;6177337;23;20037;-80
2022/06/30 06:05:30;;;;;;;10.23;7.85;;;;;;;20.96;71.04;96344.84;6160833;23;20032;-80
2022/06/30 06:08:06;;;;;;;10.90;6.70;;;;;;;21.01;70.92;96343.28;6161497;23;20040;-80
2022/06/30 06:10:34;;;;;;;13.50;7.53;;;;;;;21.06;71.12;96340.69;6158705;23;20041;-80
2022/06/30 06:13:02;;;;;;;12.25;8.43;;;;;;;21.12;71.34;96344.94;6159884;23;20060;-80
2022/06/30 06:15:29;;;;;;;11.45;8.52;;;;;;;21.16;71.06;96344.19;6161054;23;20089;-79
2022/06/30 06:17:57;;;;;;;9.70;7.60;;;;;;;21.21;71.21;96354.06;6160588;23;20484;-80
2022/06/30 06:20:25;;;;;;;7.78;6.55;;;;;;;21.26;70.65;96351.44;6161777;23;20060;-80
2022/06/30 06:22:52;;;;;;;9.45;7.30;;;;;;;21.31;70.30;96348.78;6162951;23;20358;-80
2022/06/30 06:25:21;;;;;;;8.60;6.53;;;;;;;21.38;70.17;96348.56;6161246;23;20504;-80
2022/06/30 06:30:31;;;;;;;9.65;6.90;;;;;;;21.49;69.73;96357.41;6158955;23;20410;-80
2022/06/30 06:32:59;;;;;;;7.38;6.55;;;;;;;21.54;69.38;96357.47;6161617;23;20026;-80
2022/06/30 06:35:27;;;;;;;11.05;6.80;;;;;;;21.60;69.47;96356.41;6160667;23;20014;-80
2022/06/30 06:37:54;;;;;;;7.32;5.50;;;;;;;21.66;69.04;96359.91;6160031;23;20018;-80
2022/06/30 06:40:23;;;;;;;6.85;5.38;;;;;;;21.70;68.95;96367.09;6161313;23;20096;-79
2022/06/30 06:42:51;;;;;;;6.38;5.70;;;;;;;21.77;68.11;96362.34;6161697;23;20401;-79
2022/06/30 06:45:19;;;;;;;10.77;6.10;;;;;;;21.85;68.11;96365.56;6160887;23;20045;-80
2022/06/30 06:47:47;;;;;;;7.03;5.30;;;;;;;21.92;67.30;96364.25;6160293;23;20021;-80
2022/06/30 06:50:15;;;;;;;8.05;5.97;;;;;;;21.99;66.89;96364.03;6160720;23;20044;-80
2022/06/30 06:52:42;;;;;;;9.52;6.55;;;;;;;22.05;66.84;96362.97;6160830;23;20100;-79
2022/06/30 06:55:10;;;;;;;8.07;5.32;;;;;;;22.12;66.39;96360.09;6171821;23;20052;-80
2022/06/30 06:57:41;;;;;;;8.60;5.57;;;;;;;22.19;66.43;96353.47;6174222;23;20021;-80
2022/06/30 07:00:11;;;;;;;8.07;5.80;;;;;;;22.27;66.76;96354.84;6161798;23;20034;-79
2022/06/30 07:02:39;;;;;;;6.72;6.00;;;;;;;22.34;66.34;96343.97;6163213;23;20022;-78
2022/06/30 07:05:08;;;;;;;8.95;5.68;;;;;;;22.41;66.24;96340.00;6161684;23;20358;-80
2022/06/30 07:07:37;;;;;;;7.05;6.03;;;;;;;22.50;65.96;96337.63;6162530;23;20093;-80
2022/06/30 07:10:07;;;;;;;10.13;6.93;;;;;;;22.55;65.60;96329.63;6161843;23;20022;-79
2022/06/30 07:12:35;;;;;;;8.48;5.90;;;;;;;22.62;65.55;96335.50;6162544;23;20028;-80
2022/06/30 07:15:05;;;;;;;12.77;6.90;;;;;;;22.69;65.60;96329.91;6161336;23;20034;-79
2022/06/30 07:17:36;;;;;;;15.30;11.18;;;;;;;22.77;65.46;96336.56;6172092;23;20029;-79
2022/06/30 07:20:05;;;;;;;10.00;7.70;;;;;;;22.85;65.96;96333.38;6176234;23;20021;-80
2022/06/30 07:22:33;;;;;;;9.55;8.50;;;;;;;22.95;65.53;96341.34;6172151;23;20068;-80
2022/06/30 07:25:01;;;;;;;14.75;7.20;;;;;;;23.01;64.86;96335.00;6163682;23;20088;-80
2022/06/30 07:27:33;;;;;;;13.00;7.35;;;;;;;23.11;64.94;96336.84;6162813;23;20036;-80
2022/06/30 07:30:01;;;;;;;7.35;6.05;;;;;;;23.20;63.90;96342.44;6161345;23;20022;-80
2022/06/30 07:32:33;;;;;;;8.13;5.35;;;;;;;23.27;63.56;96340.28;6161568;23;20026;-80
2022/06/30 07:35:00;;;;;;;6.28;5.68;;;;;;;23.36;63.24;96332.53;6162805;23;20041;-80
2022/06/30 07:37:28;;;;;;;9.48;6.15;;;;;;;23.45;62.92;96337.03;6161875;23;20021;-80
2022/06/30 07:39:55;;;;;;;6.97;5.20;;;;;;;23.54;62.02;96331.16;6162070;23;20029;-80
2022/06/30 07:42:23;;;;;;;7.15;5.10;;;;;;;23.63;61.60;96338.31;6162086;23;20076;-80
2022/06/30 07:44:51;;;;;;;7.38;5.47;;;;;;;23.75;61.65;96330.06;6162149;23;20508;-80
2022/06/30 07:47:19;;;;;;;5.22;4.57;;;;;;;23.85;61.30;96324.69;6161932;23;20104;-80
2022/06/30 07:49:48;;;;;;;5.63;4.55;;;;;;;23.95;60.08;96328.38;6162524;23;20029;-79
2022/06/30 07:52:15;;;;;;;4.95;3.88;;;;;;;24.02;59.71;96323.53;6160614;23;20053;-80
2022/06/30 07:54:50;;;;;;;10.00;5.60;;;;;;;24.07;59.12;96326.16;6162851;23;20028;-80
2022/06/30 07:57:19;;;;;;;5.40;4.57;;;;;;;24.12;59.26;96322.66;6163039;23;20029;-79
2022/06/30 07:59:59;;;;;;;9.18;4.53;;;;;;;24.17;59.13;96315.47;6161819;23;20087;-80
2022/06/30 08:02:27;;;;;;;10.35;5.40;;;;;;;24.21;59.32;96319.16;6161815;23;20052;-80
2022/06/30 08:04:56;;;;;;;29.20;23.45;;;;;;;24.27;59.00;96311.94;6161848;23;20489;-80
2022/06/30 08:07:23;;;;;;;7.93;6.13;;;;;;;24.34;58.66;96319.63;6162434;23;20072;-80
2022/06/30 08:09:51;;;;;;;8.90;5.28;;;;;;;24.43;58.27;96318.75;6162034;23;20327;-80
2022/06/30 08:12:19;;;;;;;5.63;4.70;;;;;;;24.52;57.66;96311.00;6162281;23;20080;-80
2022/06/30 08:14:47;;;;;;;7.88;4.55;;;;;;;24.59;57.38;96314.13;6163503;23;20026;-80
2022/06/30 08:17:15;;;;;;;11.43;8.27;;;;;;;24.66;57.34;96306.63;6161635;23;20029;-79
2022/06/30 08:19:43;;;;;;;7.50;6.35;;;;;;;24.76;57.07;96299.63;6161956;23;20014;-80
2022/06/30 08:22:12;;;;;;;4.63;4.22;;;;;;;24.84;56.06;96301.69;6162689;23;20033;-80
2022/06/30 08:24:39;;;;;;;6.60;4.10;;;;;;;24.92;56.03;96301.06;6165087;23;20026;-80
2022/06/30 08:27:07;;;;;;;5.03;3.55;;;;;;;25.03;56.33;96299.88;6163496;23;20025;-79
2022/06/30 08:29:35;;;;;;;4.97;4.47;;;;;;;25.13;55.37;96303.56;6164952;23;20025;-80
2022/06/30 08:32:04;;;;;;;7.88;3.50;;;;;;;25.22;53.78;96304.56;6165846;23;20022;-80
2022/06/30 08:34:32;;;;;;;5.40;3.60;;;;;;;25.30;54.34;96309.28;6164439;23;20017;-80
2022/06/30 08:37:00;;;;;;;5.10;4.05;;;;;;;25.38;54.15;96300.63;6166111;23;20025;-80
2022/06/30 08:42:20;;;;;;;6.95;4.20;;;;;;;25.53;53.80;96306.91;6166424;23;20061;-80
2022/06/30 08:45:13;;;;;;;5.82;3.60;;;;;;;25.63;54.25;96309.47;6165094;23;20403;-80
2022/06/30 08:47:37;;;;;;;5.28;4.05;;;;;;;25.71;53.66;96300.78;6164701;23;20026;-80
2022/06/30 08:50:08;;;;;;;5.57;4.80;;;;;;;25.79;52.90;96302.84;6165474;23;20017;-79
2022/06/30 08:52:44;;;;;;;7.72;3.83;;;;;;;25.86;52.26;96297.13;6166025;23;20030;-79
2022/06/30 08:55:15;;;;;;;7.20;4.32;;;;;;;25.95;52.65;96303.44;6166606;23;20032;-80
2022/06/30 08:57:45;;;;;;;6.82;4.47;;;;;;;26.07;52.30;96300.38;6164612;23;20029;-80
2022/06/30 09:00:15;;;;;;;5.90;4.22;;;;;;;26.11;52.36;96296.03;6167165;23;20073;-80
2022/06/30 09:02:43;;;;;;;5.78;3.83;;;;;;;26.15;52.06;96291.72;6165440;23;20017;-79
2022/06/30 09:05:12;;;;;;;4.18;3.78;;;;;;;26.19;52.50;96300.72;6168228;23;20022;-80
2022/06/30 09:07:40;;;;;;;5.65;3.80;;;;;;;26.23;51.21;96296.38;6167424;23;20401;-80
2022/06/30 09:10:30;;;;;;;6.30;3.42;;;;;;;26.31;49.57;96287.72;6167854;23;20053;-80
2022/06/30 09:12:59;;;;;;;5.03;3.85;;;;;;;26.41;50.83;96283.28;6167007;23;20021;-80
2022/06/30 09:15:29;;;;;;;8.55;4.88;;;;;;;26.50;51.53;96278.88;6167214;23;20021;-79
2022/06/30 09:17:57;;;;;;;6.55;4.15;;;;;;;26.58;51.49;96270.22;6166716;23;20362;-80
2022/06/30 09:20:35;;;;;;;9.70;4.15;;;;;;;26.66;50.49;96274.91;6166003;23;20017;-80
2022/06/30 09:23:19;;;;;;;5.13;3.78;;;;;;;26.75;51.14;96269.69;6167541;23;20021;-80
2022/06/30 09:25:50;;;;;;;5.43;3.97;;;;;;;26.82;50.09;96270.09;6176351;23;20022;-80
2022/06/30 09:28:42;;;;;;;6.70;4.00;;;;;;;26.91;50.49;96270.19;6171811;23;20076;-80
2022/06/30 09:31:35;;;;;;;6.07;3.40;;;;;;;27.01;48.14;96264.69;6166971;23;20049;-80
2022/06/30 09:34:13;;;;;;;5.47;3.50;;;;;;;27.10;48.74;96262.09;6168681;23;20097;-80
2022/06/30 09:36:40;;;;;;;5.10;4.18;;;;;;;27.20;49.37;96271.81;6168080;23;20465;-80
2022/06/30 09:39:10;;;;;;;4.55;3.63;;;;;;;27.26;49.30;96268.78;6167527;23;20030;-79
2022/06/30 09:41:41;;;;;;;5.22;4.22;;;;;;;27.35;48.83;96268.88;6166739;23;20026;-80
2022/06/30 09:44:19;;;;;;;5.32;3.35;;;;;;;27.40;48.63;96266.13;6167017;23;20028;-80
2022/06/30 09:46:58;;;;;;;6.13;3.40;;;;;;;27.47;47.82;96263.03;6167752;23;20033;-80
2022/06/30 09:49:32;;;;;;;4.85;3.58;;;;;;;27.50;47.88;96263.22;6165566;23;20017;-80
2022/06/30 09:52:00;;;;;;;7.20;3.50;;;;;;;27.57;47.17;96270.06;6168722;23;20033;-80
2022/06/30 09:54:31;;;;;;;6.20;3.30;;;;;;;27.62;46.76;96259.28;6167419;23;20022;-80
2022/06/30 09:57:05;;;;;;;10.70;4.00;;;;;;;27.64;45.24;96265.91;6167043;23;20469;-80
2022/06/30 09:59:34;;;;;;;6.15;3.22;;;;;;;27.65;45.04;96262.13;6166944;23;20021;-80
2022/06/30 10:02:06;;;;;;;4.30;2.95;;;;;;;27.67;45.20;96262.63;6167544;23;20025;-80
2022/06/30 10:04:52;;;;;;;8.13;3.40;;;;;;;27.71;45.91;96260.13;6166325;23;20022;-80
2022/06/30 10:07:21;;;;;;;4.93;3.40;;;;;;;27.78;46.82;96268.56;6167685;23;20017;-80
2022/06/30 10:09:49;;;;;;;4.38;3.35;;;;;;;27.86;46.35;96257.16;6167113;23;20045;-79
2022/06/30 10:12:19;;;;;;;6.88;3.30;;;;;;;27.93;45.77;96262.13;6167008;23;20021;-79
2022/06/30 10:14:49;;;;;;;3.85;3.20;;;;;;;27.99;45.33;96260.91;6167984;23;20021;-80
2022/06/30 10:17:20;;;;;;;4.43;3.45;;;;;;;28.07;45.36;96259.38;6157387;23;20014;-77
2022/06/30 10:19:49;;;;;;;4.65;3.05;;;;;;;28.13;45.37;96256.28;6155143;23;20029;-77
2022/06/30 10:22:17;;;;;;;4.35;3.30;;;;;;;28.21;45.62;96249.41;6155336;23;20026;-77
2022/06/30 10:24:46;;;;;;;5.75;3.05;;;;;;;28.30;44.48;96252.16;6156483;23;20033;-77
2022/06/30 10:27:14;;;;;;;5.32;3.05;;;;;;;28.40;45.18;96254.59;6155783;23;20032;-77
2022/06/30 10:29:48;;;;;;;5.90;3.72;;;;;;;28.49;44.49;96252.00;6155572;23;20323;-77
2022/06/30 10:32:25;;;;;;;4.03;3.40;;;;;;;28.50;43.55;96250.91;6154759;23;20029;-77
2022/06/30 10:35:00;;;;;;;4.63;3.40;;;;;;;28.54;44.58;96254.56;6155376;23;20454;-77
2022/06/30 10:37:36;;;;;;;4.65;3.50;;;;;;;28.57;44.61;96248.59;6155650;23;20048;-79
2022/06/30 10:40:10;;;;;;;4.25;3.30;;;;;;;28.63;44.78;96251.94;6154681;23;20022;-77
2022/06/30 10:42:46;;;;;;;8.50;3.53;;;;;;;28.68;43.52;96249.91;6156366;23;20053;-79
2022/06/30 10:45:51;;;;;;;4.05;2.85;;;;;;;28.71;42.06;96243.94;6156861;23;20064;-79
2022/06/30 10:48:20;;;;;;;3.13;2.70;;;;;;;28.73;41.35;96240.94;6155632;23;20548;-79
2022/06/30 10:50:50;;;;;;;6.28;3.20;;;;;;;28.78;41.58;96240.03;6156743;23;20026;-78
2022/06/30 10:53:43;;;;;;;5.00;2.90;;;;;;;28.83;41.25;96235.31;6154938;23;20025;-78
2022/06/30 10:56:17;;;;;;;4.25;2.97;;;;;;;28.87;40.55;96233.59;6155271;23;20021;-78
2022/06/30 10:59:04;;;;;;;7.93;2.85;;;;;;;28.94;41.96;96236.63;6155511;23;20021;-78
2022/06/30 11:01:32;;;;;;;6.78;2.92;;;;;;;29.00;41.14;96229.25;6154871;23;20022;-79
2022/06/30 11:04:03;;;;;;;4.97;3.05;;;;;;;29.03;40.52;96231.31;6155703;23;20032;-79
2022/06/30 11:07:07;;;;;;;3.97;2.75;;;;;;;29.04;40.63;96232.09;6155388;23;20021;-78
2022/06/30 11:10:07;;;;;;;5.47;2.90;;;;;;;29.05;40.77;96221.03;6155165;23;20084;-78
2022/06/30 11:13:08;;;;;;;3.50;2.70;;;;;;;29.08;41.02;96225.81;6155385;23;20025;-77
2022/06/30 11:15:53;;;;;;;5.25;3.15;;;;;;;29.12;40.93;96215.25;6091450;23;20057;-78
2022/06/30 11:18:23;;;;;;;2.67;2.40;;;;;;;29.16;41.16;96217.00;6155415;23;20096;-79
2022/06/30 11:20:53;;;;;;;7.97;3.00;;;;;;;29.22;40.50;96211.50;6154827;23;20053;-77
2022/06/30 11:23:22;;;;;;;4.88;2.78;;;;;;;29.25;40.18;96208.19;6155100;23;20358;-77
2022/06/30 11:28:40;;;;;;;3.25;2.58;;;;;;;29.30;39.13;96214.22;6154772;23;20489;-78
2022/06/30 11:31:23;;;;;;;5.20;2.97;;;;;;;29.38;39.78;96218.03;6154936;23;20068;-77
2022/06/30 11:33:52;;;;;;;19.52;3.22;;;;;;;29.43;38.43;96206.34;6154979;23;20090;-77
2022/06/30 11:36:21;;;;;;;3.75;2.70;;;;;;;29.46;37.45;96201.13;6154901;23;20051;-79
2022/06/30 11:38:56;;;;;;;4.15;2.50;;;;;;;29.48;38.25;96201.63;6154831;23;20053;-79
2022/06/30 11:44:11;;;;;;;7.85;2.92;;;;;;;29.50;38.56;96199.41;6155011;23;20048;-79
2022/06/30 11:46:53;;;;;;;3.70;2.40;;;;;;;29.53;38.70;96193.41;6154820;23;20049;-79
2022/06/30 11:49:22;;;;;;;3.70;2.72;;;;;;;29.57;38.91;96186.28;6154751;23;20364;-78
2022/06/30 11:51:52;;;;;;;7.22;2.75;;;;;;;29.57;37.99;96183.59;6154171;23;20357;-79
2022/06/30 11:54:24;;;;;;;5.97;2.55;;;;;;;29.58;38.34;96179.84;6154402;23;20473;-78
2022/06/30 11:56:56;;;;;;;2.85;2.40;;;;;;;29.63;37.65;96172.69;6154677;23;20057;-79
2022/06/30 11:59:24;;;;;;;6.07;2.40;;;;;;;29.63;37.06;96170.81;6154667;23;20465;-80
2022/06/30 12:02:06;;;;;;;4.78;2.50;;;;;;;29.63;37.22;96173.50;6154033;23;20029;-79
2022/06/30 12:04:34;;;;;;;;;;;;;;;29.66;37.94;96166.72;6156504;23;20092;-78
2022/06/30 12:07:06;;;;;;;2.72;2.25;;;;;;;29.66;36.92;96167.50;6156817;23;19916;-78
2022/06/30 12:09:35;;;;;;;3.47;2.60;;;;;;;29.67;37.21;96169.09;6156404;23;20072;-78